createdAt,value
2018-07-09T00:00:50.011Z,20.20
2018-07-09T00:05:47.598Z,20.10
2018-07-09T00:08:16.267Z,20.10
2018-07-09T00:10:51.747Z,20.00
2018-07-09T00:13:20.364Z,20.00
2018-07-09T00:15:48.436Z,19.90
2018-07-09T00:18:16.596Z,19.90
2018-07-09T00:20:45.071Z,19.80
2018-07-09T00:23:13.344Z,19.80
2018-07-09T00:25:41.510Z,19.80
2018-07-09T00:28:09.716Z,19.70
2018-07-09T00:30:37.809Z,19.70
2018-07-09T00:33:06.114Z,19.60
2018-07-09T00:35:34.170Z,19.50
2018-07-09T00:38:02.292Z,19.50
2018-07-09T00:40:30.399Z,19.40
2018-07-09T00:42:58.527Z,19.30
2018-07-09T00:45:26.734Z,19.30
2018-07-09T00:47:55.130Z,19.20
2018-07-09T00:50:23.360Z,19.20
2018-07-09T00:52:51.518Z,19.10
2018-07-09T00:55:19.635Z,19.10
2018-07-09T00:57:47.807Z,19.10
2018-07-09T01:00:15.968Z,19.10
2018-07-09T01:02:44.076Z,19.10
2018-07-09T01:05:12.165Z,19.00
2018-07-09T01:07:40.219Z,19.00
2018-07-09T01:10:08.330Z,19.00
2018-07-09T01:12:36.420Z,18.90
2018-07-09T01:17:32.584Z,18.90
2018-07-09T01:20:00.673Z,18.90
2018-07-09T01:22:28.767Z,18.90
2018-07-09T01:24:56.895Z,18.90
2018-07-09T01:27:24.973Z,18.80
2018-07-09T01:29:53.084Z,18.70
2018-07-09T01:32:21.243Z,18.70
2018-07-09T01:34:49.379Z,18.60
2018-07-09T01:37:17.455Z,18.60
2018-07-09T01:39:45.530Z,18.50
2018-07-09T01:42:13.598Z,18.50
2018-07-09T01:47:09.654Z,18.50
2018-07-09T01:49:37.720Z,18.50
2018-07-09T01:52:05.879Z,18.50
2018-07-09T01:54:33.939Z,18.50
2018-07-09T01:57:02.021Z,18.60
2018-07-09T01:59:30.104Z,18.60
2018-07-09T02:01:58.226Z,18.50
2018-07-09T02:04:26.426Z,18.60
2018-07-09T02:06:54.566Z,18.50
2018-07-09T02:09:22.701Z,18.50
2018-07-09T02:11:50.775Z,18.50
2018-07-09T02:16:46.778Z,18.50
2018-07-09T02:19:14.831Z,18.50
2018-07-09T02:21:42.934Z,18.50
2018-07-09T02:24:11.151Z,18.50
2018-07-09T02:29:07.188Z,18.40
2018-07-09T02:31:35.292Z,18.40
2018-07-09T02:34:03.406Z,18.30
2018-07-09T02:36:31.488Z,18.30
2018-07-09T02:38:59.604Z,18.20
2018-07-09T02:43:55.635Z,18.10
2018-07-09T02:46:23.904Z,18.00
2018-07-09T02:48:52.061Z,18.00
2018-07-09T02:51:20.156Z,18.00
2018-07-09T02:56:16.154Z,17.90
2018-07-09T02:58:44.357Z,17.80
2018-07-09T03:01:12.539Z,17.80
2018-07-09T03:03:40.582Z,17.70
2018-07-09T03:06:08.653Z,17.70
2018-07-09T03:08:36.745Z,17.60
2018-07-09T03:11:04.892Z,17.60
2018-07-09T03:13:32.975Z,17.50
2018-07-09T03:16:01.101Z,17.50
2018-07-09T03:18:29.204Z,17.50
2018-07-09T03:20:57.387Z,17.50
2018-07-09T03:23:25.520Z,17.40
2018-07-09T03:25:53.623Z,17.40
2018-07-09T03:28:21.751Z,17.30
2018-07-09T03:30:49.822Z,17.30
2018-07-09T03:33:17.890Z,17.30
2018-07-09T03:35:46.004Z,17.30
2018-07-09T03:38:14.231Z,17.40
2018-07-09T03:40:42.315Z,17.40
2018-07-09T03:43:10.405Z,17.40
2018-07-09T03:45:38.550Z,17.40
2018-07-09T03:48:06.647Z,17.50
2018-07-09T03:50:34.879Z,17.40
2018-07-09T03:53:03.011Z,17.40
2018-07-09T03:55:31.337Z,17.40
2018-07-09T03:57:59.490Z,17.40
2018-07-09T04:00:27.577Z,17.40
2018-07-09T04:02:55.648Z,17.40
2018-07-09T04:05:23.723Z,17.40
2018-07-09T04:07:51.832Z,17.40
2018-07-09T04:10:19.978Z,17.40
2018-07-09T04:12:48.131Z,17.40
2018-07-09T04:15:16.223Z,17.30
2018-07-09T04:17:44.376Z,17.30
2018-07-09T04:20:12.470Z,17.20
2018-07-09T04:22:40.576Z,17.30
2018-07-09T04:25:08.664Z,17.30
2018-07-09T04:27:36.752Z,17.30
2018-07-09T04:32:32.738Z,17.40
2018-07-09T04:35:00.857Z,17.40
2018-07-09T04:37:28.969Z,17.50
2018-07-09T04:39:57.080Z,17.50
2018-07-09T04:42:25.182Z,17.50
2018-07-09T04:44:54.223Z,17.60
2018-07-09T04:47:22.351Z,17.60
2018-07-09T04:52:18.352Z,17.70
2018-07-09T04:54:46.458Z,17.80
2018-07-09T04:57:14.558Z,17.80
2018-07-09T04:59:42.629Z,17.90
2018-07-09T05:02:10.781Z,18.00
2018-07-09T05:04:38.900Z,17.90
2018-07-09T05:07:06.975Z,17.90
2018-07-09T05:09:35.086Z,18.00
2018-07-09T05:12:03.171Z,18.10
2018-07-09T05:14:31.324Z,18.00
2018-07-09T05:16:59.433Z,18.10
2018-07-09T05:19:27.509Z,18.20
2018-07-09T05:21:55.671Z,18.30
2018-07-09T05:24:23.714Z,18.30
2018-07-09T05:26:51.799Z,18.50
2018-07-09T05:29:19.832Z,18.50
2018-07-09T05:31:47.979Z,18.60
2018-07-09T05:34:16.147Z,18.50
2018-07-09T05:36:44.256Z,18.70
2018-07-09T05:39:12.371Z,18.70
2018-07-09T05:41:40.572Z,18.70
2018-07-09T05:44:08.691Z,18.70
2018-07-09T05:46:37.129Z,18.70
2018-07-09T05:49:05.236Z,18.60
2018-07-09T05:51:33.381Z,18.70
2018-07-09T05:56:29.487Z,18.60
2018-07-09T05:58:57.831Z,18.80
2018-07-09T06:01:25.900Z,19.10
2018-07-09T06:03:54.042Z,19.20
2018-07-09T06:08:50.066Z,19.60
2018-07-09T06:11:18.258Z,19.30
2018-07-09T06:13:46.357Z,19.20
2018-07-09T06:18:42.687Z,19.30
2018-07-09T06:21:10.759Z,19.40
2018-07-09T06:23:38.848Z,19.40
2018-07-09T06:26:07.093Z,19.60
2018-07-09T06:28:35.236Z,19.70
2018-07-09T06:31:03.393Z,19.80
2018-07-09T06:33:31.600Z,19.80
2018-07-09T06:35:59.811Z,19.80
2018-07-09T06:38:27.911Z,20.00
2018-07-09T06:40:56.015Z,19.90
2018-07-09T06:43:24.109Z,19.90
2018-07-09T06:45:52.227Z,20.00
2018-07-09T06:48:20.424Z,19.90
2018-07-09T06:50:48.551Z,19.80
2018-07-09T06:53:16.742Z,19.90
2018-07-09T06:55:44.843Z,19.90
2018-07-09T06:58:13.034Z,19.80
2018-07-09T07:00:41.359Z,20.00
2018-07-09T07:03:09.494Z,20.00
2018-07-09T07:05:37.639Z,20.10
2018-07-09T07:08:05.727Z,20.00
2018-07-09T07:10:33.803Z,20.00
2018-07-09T07:13:01.944Z,20.10
2018-07-09T07:15:30.272Z,20.10
2018-07-09T07:17:58.495Z,20.10
2018-07-09T07:20:26.612Z,19.90
2018-07-09T07:22:54.671Z,19.90
2018-07-09T07:25:22.927Z,19.90
2018-07-09T07:27:51.079Z,20.00
2018-07-09T07:30:19.187Z,20.10
2018-07-09T07:32:47.325Z,20.10
2018-07-09T07:35:15.421Z,20.30
2018-07-09T07:37:43.484Z,20.50
2018-07-09T07:40:11.617Z,20.70
2018-07-09T07:42:39.735Z,20.80
2018-07-09T07:45:07.852Z,21.00
2018-07-09T07:47:35.947Z,21.10
2018-07-09T07:50:04.100Z,21.30
2018-07-09T07:52:32.215Z,21.60
2018-07-09T07:55:00.294Z,21.80
2018-07-09T07:57:28.408Z,22.30
2018-07-09T07:59:56.504Z,22.80
2018-07-09T08:02:24.717Z,23.00
2018-07-09T08:04:52.852Z,23.30
2018-07-09T08:07:20.982Z,23.30
2018-07-09T08:09:49.176Z,23.40
2018-07-09T08:13:00.543Z,23.70
2018-07-09T08:14:45.447Z,23.50
2018-07-09T08:17:13.533Z,22.90
2018-07-09T08:19:41.594Z,22.70
2018-07-09T08:22:09.711Z,22.60
2018-07-09T08:24:37.846Z,22.30
2018-07-09T08:27:06.208Z,21.90
2018-07-09T08:29:34.355Z,21.50
2018-07-09T08:32:02.468Z,21.50
2018-07-09T08:34:30.570Z,21.60
2018-07-09T08:36:58.670Z,21.70
2018-07-09T08:39:26.749Z,22.00
2018-07-09T08:41:54.830Z,22.30
2018-07-09T08:44:22.972Z,22.20
2018-07-09T08:46:51.089Z,22.30
2018-07-09T08:49:19.331Z,22.30
2018-07-09T08:51:47.562Z,22.40
2018-07-09T08:54:15.692Z,22.30
2018-07-09T08:56:43.848Z,22.20
2018-07-09T08:59:12.020Z,22.50
2018-07-09T09:01:40.193Z,22.60
2018-07-09T09:04:08.278Z,22.70
2018-07-09T09:06:36.444Z,22.80
2018-07-09T09:09:05.447Z,22.60
2018-07-09T09:11:33.682Z,22.40
2018-07-09T09:14:01.843Z,22.60
2018-07-09T09:16:30.041Z,22.60
2018-07-09T09:18:58.175Z,22.50
2018-07-09T09:21:26.278Z,22.70
2018-07-09T09:23:54.411Z,22.80
2018-07-09T09:26:22.514Z,23.10
2018-07-09T09:28:50.894Z,23.50
2018-07-09T09:31:19.075Z,23.80
2018-07-09T09:33:47.311Z,24.10
2018-07-09T09:36:15.408Z,24.10
2018-07-09T09:38:43.570Z,24.10
2018-07-09T09:41:11.708Z,24.00
2018-07-09T09:43:39.805Z,23.60
2018-07-09T09:46:08.016Z,23.60
2018-07-09T09:48:36.152Z,23.20
2018-07-09T09:51:04.330Z,22.90
2018-07-09T09:53:32.473Z,23.00
2018-07-09T09:56:00.735Z,23.00
2018-07-09T09:58:28.864Z,22.80
2018-07-09T10:00:56.990Z,22.80
2018-07-09T10:03:25.140Z,22.60
2018-07-09T10:05:53.264Z,22.50
2018-07-09T10:08:21.385Z,22.60
2018-07-09T10:10:49.466Z,22.70
2018-07-09T10:13:17.548Z,22.80
2018-07-09T10:15:45.642Z,22.80
2018-07-09T10:18:13.713Z,22.90
2018-07-09T10:20:41.816Z,22.80
2018-07-09T10:23:10.167Z,22.90
2018-07-09T10:25:38.028Z,22.90
2018-07-09T10:28:06.251Z,23.10
2018-07-09T10:30:35.518Z,23.30
2018-07-09T10:33:05.686Z,23.20
2018-07-09T10:35:33.938Z,23.00
2018-07-09T10:38:02.060Z,22.70
2018-07-09T10:40:30.212Z,22.50
2018-07-09T10:42:58.346Z,22.50
2018-07-09T10:45:28.084Z,22.50
2018-07-09T10:50:24.032Z,22.80
2018-07-09T10:52:52.125Z,22.90
2018-07-09T10:55:20.223Z,22.80
2018-07-09T10:57:48.330Z,22.80
2018-07-09T11:00:16.452Z,23.00
2018-07-09T11:02:44.559Z,23.00
2018-07-09T11:05:12.723Z,23.20
2018-07-09T11:07:40.880Z,23.40
2018-07-09T11:10:08.988Z,23.50
2018-07-09T11:12:37.143Z,23.50
2018-07-09T11:15:05.268Z,23.50
2018-07-09T11:17:33.366Z,23.80
2018-07-09T11:20:01.459Z,23.90
2018-07-09T11:22:29.653Z,24.10
2018-07-09T11:24:58.019Z,24.30
2018-07-09T11:27:26.115Z,24.40
2018-07-09T11:29:54.337Z,24.50
2018-07-09T11:32:22.491Z,24.60
2018-07-09T11:34:50.652Z,24.20
2018-07-09T11:37:18.802Z,24.10
2018-07-09T11:39:46.910Z,23.90
2018-07-09T11:42:15.187Z,24.00
2018-07-09T11:44:43.162Z,24.10
2018-07-09T11:47:11.239Z,24.20
2018-07-09T11:49:39.354Z,24.10
2018-07-09T11:52:07.617Z,23.90
2018-07-09T11:54:35.687Z,23.70
2018-07-09T11:57:03.795Z,23.60
2018-07-09T11:59:32.070Z,23.70
2018-07-09T12:02:00.386Z,23.90
2018-07-09T12:04:28.456Z,24.00
2018-07-09T12:06:56.580Z,23.90
2018-07-09T12:09:24.712Z,23.80
2018-07-09T12:11:53.459Z,24.00
2018-07-09T12:14:21.558Z,24.10
2018-07-09T12:16:49.641Z,24.40
2018-07-09T12:19:17.725Z,24.50
2018-07-09T12:21:45.959Z,24.50
2018-07-09T12:24:14.273Z,24.50
2018-07-09T12:26:42.574Z,24.20
2018-07-09T12:29:10.982Z,24.10
2018-07-09T12:31:38.934Z,24.00
2018-07-09T12:34:07.056Z,23.70
2018-07-09T12:36:35.196Z,23.60
2018-07-09T12:39:03.967Z,23.60
2018-07-09T12:41:32.182Z,23.60
2018-07-09T12:44:01.377Z,23.60
2018-07-09T12:46:31.403Z,23.80
2018-07-09T12:49:00.335Z,24.00
2018-07-09T12:51:28.444Z,24.00
2018-07-09T12:53:56.935Z,24.00
2018-07-09T12:56:25.112Z,23.90
2018-07-09T12:58:53.187Z,23.90
2018-07-09T13:01:21.321Z,23.90
2018-07-09T13:03:49.383Z,23.80
2018-07-09T13:06:17.465Z,23.80
2018-07-09T13:08:45.553Z,23.90
2018-07-09T13:11:13.651Z,24.00
2018-07-09T13:13:41.794Z,24.00
2018-07-09T13:16:10.072Z,24.10
2018-07-09T13:18:38.250Z,24.30
2018-07-09T13:21:06.390Z,24.20
2018-07-09T13:23:34.541Z,24.30
2018-07-09T13:26:02.740Z,24.40
2018-07-09T13:28:30.863Z,24.30
2018-07-09T13:30:59.028Z,24.30
2018-07-09T13:33:27.088Z,24.20
2018-07-09T13:35:55.228Z,24.10
2018-07-09T13:38:23.436Z,23.70
2018-07-09T13:40:51.569Z,23.60
2018-07-09T13:43:19.664Z,23.70
2018-07-09T13:45:47.747Z,23.90
2018-07-09T13:48:15.909Z,24.00
2018-07-09T13:50:44.104Z,23.90
2018-07-09T13:53:12.279Z,23.80
2018-07-09T13:55:40.407Z,23.80
2018-07-09T13:58:08.641Z,23.70
2018-07-09T14:00:36.939Z,23.70
2018-07-09T14:03:05.236Z,23.80
2018-07-09T14:05:33.387Z,23.80
2018-07-09T14:08:01.464Z,23.80
2018-07-09T14:10:29.663Z,23.90
2018-07-09T14:12:57.767Z,23.90
2018-07-09T14:15:25.913Z,23.70
2018-07-09T14:17:54.004Z,23.60
2018-07-09T14:20:55.870Z,23.60
2018-07-09T14:23:24.053Z,23.60
2018-07-09T14:25:52.166Z,23.70
2018-07-09T14:30:48.420Z,23.40
2018-07-09T14:33:16.548Z,23.40
2018-07-09T14:35:44.783Z,23.50
2018-07-09T14:38:12.886Z,23.50
2018-07-09T14:40:41.003Z,23.80
2018-07-09T14:43:09.211Z,24.10
2018-07-09T14:45:37.338Z,24.00
2018-07-09T14:48:05.459Z,23.60
2018-07-09T14:53:01.559Z,23.50
2018-07-09T14:55:29.684Z,23.60
2018-07-09T14:57:57.805Z,23.60
2018-07-09T15:00:25.981Z,23.50
2018-07-09T15:02:54.060Z,23.60
2018-07-09T15:05:22.133Z,23.80
2018-07-09T15:07:50.289Z,23.80
2018-07-09T15:10:18.370Z,23.90
2018-07-09T15:12:46.556Z,24.00
2018-07-09T15:15:17.183Z,23.90
2018-07-09T15:20:13.775Z,23.90
2018-07-09T15:25:09.858Z,23.70
2018-07-09T15:27:38.279Z,23.50
2018-07-09T15:30:06.376Z,23.50
2018-07-09T15:35:02.563Z,23.40
2018-07-09T15:37:30.667Z,23.40
2018-07-09T15:40:00.204Z,23.30
2018-07-09T15:42:28.683Z,23.30
2018-07-09T15:44:56.823Z,23.30
2018-07-09T15:47:25.217Z,23.20
2018-07-09T15:49:53.330Z,23.20
2018-07-09T15:52:21.454Z,23.20
2018-07-09T15:54:49.550Z,23.30
2018-07-09T15:57:17.641Z,23.40
2018-07-09T15:59:45.766Z,23.40
2018-07-09T16:02:13.895Z,23.40
2018-07-09T16:04:42.041Z,23.50
2018-07-09T16:07:11.277Z,23.50
2018-07-09T16:09:39.793Z,23.60
2018-07-09T16:12:08.134Z,23.50
2018-07-09T16:14:36.430Z,23.40
2018-07-09T16:17:04.630Z,23.40
2018-07-09T16:19:32.719Z,23.40
2018-07-09T16:22:01.109Z,23.50
2018-07-09T16:24:29.763Z,23.40
2018-07-09T16:26:58.021Z,23.40
2018-07-09T16:31:54.139Z,23.30
2018-07-09T16:34:22.601Z,23.40
2018-07-09T16:36:50.734Z,23.40
2018-07-09T16:39:18.807Z,23.40
2018-07-09T16:41:46.958Z,23.40
2018-07-09T16:44:15.058Z,23.40
2018-07-09T16:46:43.174Z,23.30
2018-07-09T16:49:11.257Z,23.30
2018-07-09T16:54:07.401Z,23.30
2018-07-09T16:56:35.518Z,23.30
2018-07-09T16:59:03.690Z,23.40
2018-07-09T17:01:31.829Z,23.50
2018-07-09T17:03:59.928Z,23.50
2018-07-09T17:06:28.056Z,23.40
2018-07-09T17:08:56.176Z,23.40
2018-07-09T17:11:24.271Z,23.40
2018-07-09T17:13:52.442Z,23.30
2018-07-09T17:16:20.553Z,23.30
2018-07-09T17:18:48.726Z,23.40
2018-07-09T17:21:16.853Z,23.50
2018-07-09T17:23:45.028Z,23.50
2018-07-09T17:26:13.294Z,23.50
2018-07-09T17:28:41.597Z,23.50
2018-07-09T17:31:09.716Z,23.50
2018-07-09T17:33:38.040Z,23.50
2018-07-09T17:36:06.149Z,23.40
2018-07-09T17:38:34.343Z,23.30
2018-07-09T17:41:03.260Z,23.30
2018-07-09T17:43:31.320Z,23.20
2018-07-09T17:45:59.466Z,23.10
2018-07-09T17:48:27.694Z,23.10
2018-07-09T17:50:55.850Z,23.00
2018-07-09T17:53:24.102Z,22.90
2018-07-09T17:55:52.409Z,22.80
2018-07-09T17:58:20.663Z,22.70
2018-07-09T18:00:49.160Z,22.60
2018-07-09T18:03:17.768Z,22.40
2018-07-09T18:05:45.964Z,22.30
2018-07-09T18:08:14.095Z,22.20
2018-07-09T18:10:42.237Z,22.20
2018-07-09T18:13:10.397Z,22.10
2018-07-09T18:15:38.683Z,22.00
2018-07-09T18:18:07.512Z,21.90
2018-07-09T18:20:35.610Z,21.80
2018-07-09T18:23:03.771Z,21.70
2018-07-09T18:27:59.902Z,21.50
2018-07-09T18:30:28.078Z,21.40
2018-07-09T18:32:56.265Z,21.30
2018-07-09T18:35:24.403Z,21.20
2018-07-09T18:37:52.559Z,21.20
2018-07-09T18:40:20.764Z,21.10
2018-07-09T18:42:49.077Z,21.00
2018-07-09T18:45:17.422Z,20.90
2018-07-09T18:47:45.547Z,20.90
2018-07-09T18:52:41.744Z,20.80
2018-07-09T18:55:09.887Z,20.70
2018-07-09T18:57:38.046Z,20.60
2018-07-09T19:00:06.190Z,20.60
2018-07-09T19:02:34.376Z,20.50
2018-07-09T19:07:31.558Z,20.40
2018-07-09T19:10:00.000Z,20.30
2018-07-09T19:12:33.750Z,20.20
2018-07-09T19:15:01.879Z,20.10
2018-07-09T19:18:09.125Z,20.10
2018-07-09T19:21:21.083Z,20.00
2018-07-09T19:23:48.342Z,20.00
2018-07-09T19:26:15.524Z,19.80
2018-07-09T19:28:43.169Z,19.80
2018-07-09T19:31:10.394Z,19.70
2018-07-09T19:33:38.138Z,19.70
2018-07-09T19:36:05.792Z,19.60
2018-07-09T19:38:33.235Z,19.50
2018-07-09T19:41:00.494Z,19.50
2018-07-09T19:43:27.741Z,19.40
2018-07-09T19:45:55.012Z,19.30
2018-07-09T19:48:22.177Z,19.30
2018-07-09T19:50:49.408Z,19.30
2018-07-09T19:53:16.590Z,19.20
2018-07-09T19:55:43.942Z,19.10
2018-07-09T19:58:11.182Z,19.10
2018-07-09T20:00:38.993Z,19.10
2018-07-09T20:03:07.003Z,19.10
2018-07-09T20:05:34.262Z,19.00
2018-07-09T20:08:01.984Z,19.00
2018-07-09T20:10:34.724Z,19.00
2018-07-09T20:13:19.435Z,19.00
2018-07-09T20:15:52.685Z,18.90
2018-07-09T20:18:19.871Z,18.90
2018-07-09T20:20:47.132Z,18.80
2018-07-09T20:23:14.447Z,18.80
2018-07-09T20:25:41.810Z,18.70
2018-07-09T20:28:09.083Z,18.60
2018-07-09T20:30:36.323Z,18.60
2018-07-09T20:33:04.028Z,18.50
2018-07-09T20:35:31.246Z,18.50
2018-07-09T20:37:58.495Z,18.40
2018-07-09T20:40:25.725Z,18.30
2018-07-09T20:42:52.943Z,18.30
2018-07-09T20:45:20.147Z,18.20
2018-07-09T20:47:47.422Z,18.20
2018-07-09T20:50:14.649Z,18.10
2018-07-09T20:52:41.886Z,18.00
2018-07-09T20:57:36.580Z,18.00
2018-07-09T21:00:03.810Z,17.90
2018-07-09T21:02:31.187Z,17.80
2018-07-09T21:04:58.483Z,17.80
2018-07-09T21:07:25.771Z,17.80
2018-07-09T21:09:53.262Z,17.80
2018-07-09T21:12:20.794Z,17.80
2018-07-09T21:14:47.967Z,17.70
2018-07-09T21:17:15.431Z,17.70
2018-07-09T21:19:42.600Z,17.70
2018-07-09T21:22:09.902Z,17.70
2018-07-09T21:24:37.100Z,17.60
2018-07-09T21:27:04.329Z,17.70
2018-07-09T21:29:31.532Z,17.70
2018-07-09T21:31:58.719Z,17.70
2018-07-09T21:34:25.928Z,17.60
2018-07-09T21:36:53.118Z,17.60
2018-07-09T21:39:20.392Z,17.60
2018-07-09T21:41:47.631Z,17.60
2018-07-09T21:44:14.892Z,17.60
2018-07-09T21:46:42.082Z,17.50
2018-07-09T21:49:09.282Z,17.50
2018-07-09T21:51:36.463Z,17.50
2018-07-09T21:54:03.655Z,17.50
2018-07-09T21:56:30.995Z,17.40
2018-07-09T21:58:58.158Z,17.40
2018-07-09T22:01:25.334Z,17.30
2018-07-09T22:03:52.545Z,17.20
2018-07-09T22:06:19.744Z,17.20
2018-07-09T22:08:46.956Z,17.10
2018-07-09T22:11:14.203Z,17.20
2018-07-09T22:13:41.394Z,17.10
2018-07-09T22:16:09.562Z,17.10
2018-07-09T22:18:36.784Z,17.00
2018-07-09T22:21:04.160Z,17.00
2018-07-09T22:23:31.374Z,17.00
2018-07-09T22:25:58.536Z,17.00
2018-07-09T22:28:25.741Z,19.00
2018-07-09T22:30:53.879Z,17.00
2018-07-09T22:33:21.936Z,17.00
2018-07-09T22:35:50.006Z,17.00
2018-07-09T22:38:18.165Z,17.00
2018-07-09T22:40:46.239Z,17.00
2018-07-09T22:43:26.378Z,16.90
2018-07-09T22:45:54.517Z,16.90
2018-07-09T22:48:22.599Z,16.80
2018-07-09T22:50:50.712Z,16.80
2018-07-09T22:53:18.781Z,16.70
2018-07-09T22:55:58.319Z,16.80
2018-07-09T22:58:26.403Z,16.80
2018-07-09T23:00:54.452Z,16.90
2018-07-09T23:03:22.605Z,16.80
2018-07-09T23:05:50.704Z,16.80
2018-07-09T23:08:18.785Z,16.90
2018-07-09T23:12:28.077Z,17.00
2018-07-09T23:17:16.495Z,17.00
2018-07-09T23:21:59.577Z,16.90
2018-07-09T23:24:27.137Z,16.90
2018-07-09T23:26:54.952Z,16.90
2018-07-09T23:29:22.138Z,16.80
2018-07-09T23:34:17.805Z,16.80
2018-07-09T23:36:44.992Z,16.70
2018-07-09T23:39:12.449Z,16.60
2018-07-09T23:41:39.687Z,16.70
2018-07-09T23:44:06.933Z,16.70
2018-07-09T23:46:34.251Z,16.70
2018-07-09T23:49:01.456Z,16.70
2018-07-09T23:51:28.636Z,16.80
2018-07-09T23:53:55.864Z,16.80
2018-07-09T23:58:39.043Z,16.90
